Weather observations for the past three days for
Nausori International Airport
| Date | Time (+12) | Wind (mph) | Vis. (mi.) | Weather | Sky Cond. | Temperature (ºF) | Relative Humidity | Wind Chill (°F) | Heat Index (°F) | Pressure | Precipitation (in) | ||||||
|---|---|---|---|---|---|---|---|---|---|---|---|---|---|---|---|---|---|
| Air | Dwpt | 6 hour | altimeter (in) | sea level (mb) | 1 hr | 3 hr | 6 hr | ||||||||||
| Max. | Min. | ||||||||||||||||
| 02 | 08:00 | SE 15 | 0.00 | Mostly Cloudy | BKN020 BKN045 | 71.6 | 66.2 | 83% | 0 | 0.0 | |||||||
| 02 | 07:00 | E 8 | 0.00 | Mostly Cloudy | BKN020 BKN045 | 71.6 | 66.2 | 83% | 0 | 0.0 | |||||||
| 02 | 06:00 | E 7 | 0.00 | Mostly Cloudy | SCT020 BKN045 | 69.8 | 66.2 | 88% | 0 | 0.0 | |||||||
| 02 | 05:00 | E 9 | 0.00 | Light Showers Rain | SCT020 BKN045 | 69.8 | 68 | 94% | 0 | 0.0 | |||||||
| 02 | 04:00 | E 8 | 0.00 | Mostly Cloudy | SCT022 BKN045 | 69.8 | 66.2 | 88% | 0 | 0.0 | |||||||
| 02 | 03:00 | Calm | 0.00 | Mostly Cloudy | BKN022 BKN045 | 68 | 66.2 | 94% | 0 | 0.0 | |||||||
| 02 | 02:00 | SE 3 | 0.00 | Mostly Cloudy | BKN022 BKN045 | 68 | 66.2 | 94% | 0 | 0.0 | |||||||
| 02 | 00:00 | E 5 | 0.00 | Mostly Cloudy | SCT022 BKN045 | 69.8 | 66.2 | 88% | 0 | 0.0 | |||||||
| 01 | 23:00 | E 5 | 0.00 | Mostly Cloudy | SCT022 BKN045 | 71.6 | 66.2 | 83% | 0 | 0.0 | |||||||
| 01 | 22:00 | E 8 | 0.00 | Mostly Cloudy | SCT022 BKN045 | 69.8 | 64.4 | 83% | 0 | 0.0 | |||||||
| 01 | 21:00 | E 8 | 0.00 | Mostly Cloudy | SCT022 BKN045 | 69.8 | 64.4 | 83% | 0 | 0.0 | |||||||
| 01 | 20:00 | E 8 | 0.00 | Mostly Cloudy | BKN020 BKN045 | 69.8 | 64.4 | 83% | 0 | 0.0 | |||||||
| 01 | 19:00 | E 6 | 0.00 | Mostly Cloudy | BKN018 BKN042 | 69.8 | 66.2 | 88% | 0 | 0.0 | |||||||
| 01 | 18:00 | S 5 | 0.00 | Light Showers Rain | BKN017 BKN042 | 69.8 | 68 | 94% | 0 | 0.0 | |||||||
| 01 | 17:00 | S 5 | 0.00 | Light Showers Rain | FEW010 BKN017 BKN042 | 68 | 68 | 100% | 0 | 0.0 | |||||||
| 01 | 16:00 | SE 8 | 0.00 | Light Showers Rain | FEW010 BKN017 BKN042 | 69.8 | 68 | 94% | 0 | 0.0 | |||||||
| 01 | 15:00 | SE 12 | 0.00 | Light Showers Rain | FEW011 BKN018 BKN042 | 69.8 | 68 | 94% | 0 | 0.0 | |||||||
| 01 | 14:00 | SE 8 | 0.00 | Light Showers Rain | FEW012 BKN018 BKN042 | 71.6 | 69.8 | 94% | 0 | 0.0 | |||||||
| 01 | 13:00 | E 13 | 0.00 | Mostly Cloudy | BKN022 BKN045 | 73.4 | 68 | 83% | 0 | 0.0 | |||||||
| 01 | 12:00 | E 16 | 0.00 | Mostly Cloudy | BKN022 BKN045 | 75.2 | 66.2 | 74% | 77 | 0 | 0.0 | ||||||
| 01 | 11:00 | E 13 | 0.00 | Mostly Cloudy | BKN022 BKN045 | 75.2 | 68 | 78% | 76 | 0 | 0.0 | ||||||
| 01 | 10:00 | E 12 | 0.00 | Mostly Cloudy | BKN022 BKN045 | 75.2 | 68 | 78% | 76 | 0 | 0.0 | ||||||
| 01 | 09:00 | E 12 | 0.00 | Mostly Cloudy | BKN022 BKN043 | 73.4 | 66.2 | 78% | 0 | 0.0 | |||||||
| 01 | 08:00 | E 7 | 0.00 | Mostly Cloudy | SCT023 BKN043 | 69.8 | 66.2 | 88% | 0 | 0.0 | |||||||
| 01 | 07:00 | Vrbl 2 | 0.00 | Mostly Cloudy | FEW023 BKN043 | 69.8 | 66.2 | 88% | 0 | 0.0 | |||||||
| 01 | 06:00 | E 5 | 0.00 | Mostly Cloudy | FEW023 BKN120 | 69.8 | 66.2 | 88% | 0 | 0.0 | |||||||
| 01 | 05:00 | E 6 | 0.00 | Mostly Cloudy | BKN023 BKN045 | 69.8 | 66.2 | 88% | 0 | 0.0 | |||||||
| 01 | 04:00 | E 6 | 0.00 | Mostly Cloudy | BKN023 BKN045 | 71.6 | 66.2 | 83% | 0 | 0.0 | |||||||
| 01 | 03:00 | Calm | 0.00 | Mostly Cloudy | BKN023 BKN045 | 69.8 | 66.2 | 88% | 0 | 0.0 | |||||||
| 01 | 02:00 | E 5 | 0.00 | Mostly Cloudy | BKN023 BKN045 | 69.8 | 66.2 | 88% | 0 | 0.0 | |||||||
| 01 | 01:00 | Vrbl 2 | 0.00 | Mostly Cloudy | BKN023 BKN045 | 69.8 | 68 | 94% | 0 | 0.0 | |||||||
| 01 | 00:00 | Vrbl 2 | 0.00 | Mostly Cloudy | BKN023 BKN045 | 69.8 | 68 | 94% | 0 | 0.0 | |||||||
| 31 | 23:00 | Calm | 0.00 | Mostly Cloudy | SCT020 BKN045 | 69.8 | 68 | 94% | 0 | 0.0 | |||||||
| 31 | 22:00 | Vrbl 1 | 0.00 | Mostly Cloudy | BKN020 BKN045 | 69.8 | 68 | 94% | 0 | 0.0 | |||||||
| 31 | 21:00 | S 3 | 0.00 | Mostly Cloudy | BKN020 BKN045 | 69.8 | 68 | 94% | 0 | 0.0 | |||||||
| 31 | 20:00 | S 5 | 0.00 | Mostly Cloudy | BKN020 BKN045 | 71.6 | 68 | 88% | 0 | 0.0 | |||||||
| 31 | 19:00 | SE 6 | 0.00 | Mostly Cloudy | BKN020 BKN045 | 71.6 | 68 | 88% | 0 | 0.0 | |||||||
| 31 | 18:00 | SE 3 | 0.00 | Mostly Cloudy | BKN020 BKN045 | 71.6 | 66.2 | 83% | 0 | 0.0 | |||||||
| 31 | 17:00 | SE 7 | 0.00 | Mostly Cloudy | BKN022 BKN045 | 71.6 | 66.2 | 83% | 0 | 0.0 | |||||||
| 31 | 16:00 | SE 9 | 0.00 | Mostly Cloudy | SCT022 BKN045 | 73.4 | 66.2 | 78% | 0 | 0.0 | |||||||
| 31 | 15:00 | SE 6 | 0.00 | Mostly Cloudy | SCT022 BKN045 | 73.4 | 66.2 | 78% | 0 | 0.0 | |||||||
| 31 | 14:00 | E 8 | 0.00 | Mostly Cloudy | SCT022 BKN045 | 73.4 | 68 | 83% | 0 | 0.0 | |||||||
| 31 | 13:00 | E 7 | 0.00 | Mostly Cloudy | SCT022 BKN045 | 73.4 | 68 | 83% | 0 | 0.0 | |||||||
| 31 | 12:00 | SE 6 | 0.00 | Light Rain | SCT022 BKN045 | 73.4 | 69.8 | 89% | 0 | 0.0 | |||||||
| 31 | 11:00 | E 7 | 0.00 | Mostly Cloudy | SCT025 BKN045 | 73.4 | 68 | 83% | 0 | 0.0 | |||||||
| 31 | 10:00 | E 8 | 0.00 | Mostly Cloudy | SCT025 BKN045 | 73.4 | 68 | 83% | 0 | 0.0 | |||||||
| 31 | 09:00 | E 8 | 0.00 | Mostly Cloudy | SCT025 BKN045 | 75.2 | 68 | 78% | 76 | 0 | 0.0 | ||||||
| 31 | 08:00 | Calm | 0.00 | Mostly Cloudy | SCT025 BKN045 | 71.6 | 68 | 88% | 0 | 0.0 | |||||||
| 31 | 07:00 | Calm | 0.00 | Mostly Cloudy | SCT025 BKN045 | 68 | 68 | 100% | 0 | 0.0 | |||||||
| 31 | 06:00 | Vrbl 2 | 0.00 | Partly Cloudy | SCT025 SCT045 | 68 | 68 | 100% | 0 | 0.0 | |||||||
| 31 | 05:00 | Calm | 0.00 | Mostly Cloudy | SCT025 BKN045 | 68 | 68 | 100% | 0 | 0.0 | |||||||
| 31 | 04:00 | Calm | 0.00 | Partly Cloudy | SCT025 SCT045 | 68 | 68 | 100% | 0 | 0.0 | |||||||
| 31 | 03:00 | Calm | 0.00 | Mostly Cloudy | BKN027 | 66.2 | 66.2 | 100% | 0 | 0.0 | |||||||
| 31 | 02:00 | Calm | 0.00 | A Few Clouds | FEW027 | 66.2 | 66.2 | 100% | 0 | 0.0 | |||||||
| 31 | 01:00 | Calm | 0.00 | Partly Cloudy | SCT027 | 68 | 66.2 | 94% | 0 | 0.0 | |||||||
| 31 | 00:00 | E 6 | 0.00 | Partly Cloudy | SCT027 SCT047 | 71.6 | 66.2 | 83% | 0 | 0.0 | |||||||
| 30 | 23:00 | E 5 | 0.00 | Mostly Cloudy | SCT020 BKN045 | 71.6 | 66.2 | 83% | 0 | 0.0 | |||||||
| 30 | 22:00 | SE 9 | 0.00 | Mostly Cloudy | SCT020 BKN045 | 73.4 | 66.2 | 78% | 0 | 0.0 | |||||||
| 30 | 21:00 | SE 5 | 0.00 | Mostly Cloudy | SCT020 BKN045 | 71.6 | 66.2 | 83% | 0 | 0.0 | |||||||
| 30 | 20:00 | SE 7 | 0.00 | Mostly Cloudy | SCT020 BKN045 | 71.6 | 66.2 | 83% | 0 | 0.0 | |||||||
| 30 | 19:00 | S 8 | 0.00 | Mostly Cloudy | SCT020 BKN045 | 73.4 | 66.2 | 78% | 0 | 0.0 | |||||||
| 30 | 18:00 | S 7 | 0.00 | Mostly Cloudy | SCT022 BKN045 | 73.4 | 64.4 | 74% | 0 | 0.0 | |||||||
| 30 | 17:00 | S 12 | 0.00 | Mostly Cloudy | SCT022 BKN045 | 75.2 | 64.4 | 69% | 77 | 0 | 0.0 | ||||||
| 30 | 16:00 | S 8 | 0.00 | Mostly Cloudy | SCT022 BKN045 | 75.2 | 68 | 78% | 76 | 0 | 0.0 | ||||||
| 30 | 15:00 | S 13 | 0.00 | Partly Cloudy | SCT024 | 77 | 69.8 | 79% | 79 | 0 | 0.0 | ||||||
| 30 | 14:00 | SE 13 | 0.00 | Partly Cloudy | SCT024 | 78.8 | 68 | 70% | 81 | 0 | 0.0 | ||||||
| 30 | 13:00 | S 9 | 0.00 | Mostly Cloudy | BKN024 | 78.8 | 68 | 70% | 81 | 0 | 0.0 | ||||||
| 30 | 12:00 | S 10 | 0.00 | Mostly Cloudy | BKN024 | 78.8 | 68 | 70% | 81 | 0 | 0.0 | ||||||
| 30 | 11:00 | S 8 | 0.00 | Partly Cloudy | SCT024 | 80.6 | 69.8 | 70% | 84 | 0 | 0.0 | ||||||
| 30 | 10:00 | S 8 | 0.00 | Partly Cloudy | SCT024 | 78.8 | 68 | 70% | 81 | 0 | 0.0 | ||||||
| 30 | 09:00 | SW 6 | 0.00 | Partly Cloudy | FEW016 SCT024 | 75.2 | 69.8 | 83% | 75 | 0 | 0.0 | ||||||
| Date | Time (+12) | Wind (mph) | Vis. (mi.) | Weather | Sky Cond. | Air | Dwpt | Max. | Min. | Relative Humidity | Wind Chill (°F) | Heat Index (°F) | altimeter (in) | sea level (mb) | 1 hr | 3 hr | 6 hr |
| 6 hour | |||||||||||||||||
| Temperature (ºF) | Pressure | Precipitation (in) | |||||||||||||||